Time;durP1;ratioP1;P1;durP2;ratioP2;P2;SDS_P1;SDS_P2;PMS_P1;PMS_P2;Temp;Humidity;BMP_temperature;BMP_pressure;BME280_temperature;BME280_humidity;BME280_pressure;Samples;Min_cycle;Max_cycle;Signal;HPM_P1;HPM_P2
2022/12/28 00:01:17;;;;;;;5.63;1.85;;;;;;;8.55;66.67;101624.84;5104604;28;20123;-71
2022/12/28 00:03:47;;;;;;;4.88;2.13;;;;;;;8.55;67.06;101622.16;5100532;28;20036;-70
2022/12/28 00:06:16;;;;;;;6.43;2.13;;;;;;;8.56;66.45;101619.28;5104202;28;20044;-71
2022/12/28 00:08:44;;;;;;;2.85;1.70;;;;;;;8.57;66.19;101612.91;5103886;28;20059;-70
2022/12/28 00:11:14;;;;;;;4.05;2.00;;;;;;;8.56;65.91;101611.25;5099952;28;20087;-71
2022/12/28 00:13:58;;;;;;;7.15;2.00;;;;;;;8.54;67.12;101604.44;5106590;28;20043;-68
2022/12/28 00:16:28;;;;;;;5.75;2.22;;;;;;;8.53;66.73;101603.59;5096981;28;20112;-71
2022/12/28 00:18:58;;;;;;;5.80;2.25;;;;;;;8.53;66.59;101606.28;5099205;28;20114;-71
2022/12/28 00:21:26;;;;;;;4.40;1.70;;;;;;;8.53;67.02;101592.06;5102036;28;20079;-71
2022/12/28 00:23:56;;;;;;;7.70;2.53;;;;;;;8.54;66.29;101575.78;5091497;28;20087;-71
2022/12/28 00:26:26;;;;;;;6.22;2.17;;;;;;;8.52;66.37;101564.44;5101040;28;20040;-71
2022/12/28 00:28:53;;;;;;;4.85;1.98;;;;;;;8.52;66.64;101553.72;5101310;28;20048;-69
2022/12/28 00:31:30;;;;;;;6.88;1.98;;;;;;;8.53;66.44;101549.19;5107371;28;20037;-71
2022/12/28 00:34:00;;;;;;;5.03;2.20;;;;;;;8.52;66.84;101545.69;5103669;28;20047;-70
2022/12/28 00:36:27;;;;;;;4.85;1.65;;;;;;;8.50;66.52;101528.97;5102413;28;20040;-69
2022/12/28 00:39:15;;;;;;;4.72;1.95;;;;;;;8.52;67.17;101526.09;5102414;28;20052;-70
2022/12/28 00:41:43;;;;;;;6.63;2.40;;;;;;;8.51;66.32;101524.44;5100382;28;20111;-69
2022/12/28 00:44:11;;;;;;;4.70;2.10;;;;;;;8.51;66.96;101525.28;5095004;28;20045;-70
2022/12/28 00:46:39;;;;;;;6.75;2.08;;;;;;;8.51;66.47;101533.31;5102967;28;20103;-70
2022/12/28 00:49:08;;;;;;;4.40;1.73;;;;;;;8.52;66.95;101526.09;5101271;28;20424;-70
2022/12/28 00:51:36;;;;;;;3.00;1.98;;;;;;;8.51;67.37;101527.94;5100961;28;20052;-70
2022/12/28 00:54:04;;;;;;;4.50;1.88;;;;;;;8.51;66.75;101513.72;5104514;28;20139;-70
2022/12/28 00:56:32;;;;;;;4.40;2.08;;;;;;;8.48;66.83;101502.38;5102879;28;20108;-70
2022/12/28 00:59:00;;;;;;;6.47;2.58;;;;;;;8.50;67.01;101517.41;5100537;28;20063;-70
2022/12/28 01:01:28;;;;;;;4.03;2.13;;;;;;;8.51;66.50;101500.31;5104687;28;20074;-70
2022/12/28 01:03:58;;;;;;;5.38;1.90;;;;;;;8.50;66.81;101499.50;5105269;28;20070;-69
2022/12/28 01:06:28;;;;;;;5.13;2.20;;;;;;;8.51;66.58;101503.00;5107412;28;20043;-70
2022/12/28 01:08:56;;;;;;;4.20;1.90;;;;;;;8.51;66.83;101505.69;5100525;28;20132;-70
2022/12/28 01:11:25;;;;;;;5.25;1.83;;;;;;;8.51;67.05;101493.13;5107516;28;20075;-70
2022/12/28 01:13:56;;;;;;;5.57;1.95;;;;;;;8.53;66.65;101484.88;5103770;28;20048;-67
2022/12/28 01:16:26;;;;;;;5.93;2.40;;;;;;;8.41;66.89;101471.19;5102214;28;20072;-70
2022/12/28 01:18:56;;;;;;;3.30;1.65;;;;;;;8.49;67.25;101484.44;5098559;28;20044;-70
2022/12/28 01:21:28;;;;;;;4.07;2.13;;;;;;;8.49;67.45;101484.44;5109848;28;20052;-70
2022/12/28 01:23:57;;;;;;;5.32;2.20;;;;;;;8.50;67.02;101478.06;5107069;28;20044;-70
2022/12/28 01:26:26;;;;;;;4.50;1.92;;;;;;;8.50;66.57;101472.72;5096649;28;20464;-71
2022/12/28 01:28:54;;;;;;;4.53;2.15;;;;;;;8.51;66.75;101468.19;5104163;28;20048;-67
2022/12/28 01:31:22;;;;;;;4.53;2.72;;;;;;;8.51;67.29;101468.19;5104437;28;20380;-70
2022/12/28 01:33:50;;;;;;;4.82;1.85;;;;;;;8.51;66.86;101465.50;5102373;28;20044;-70
2022/12/28 01:36:20;;;;;;;5.65;2.00;;;;;;;8.51;67.00;101449.44;5113030;28;20579;-70
2022/12/28 01:38:52;;;;;;;5.25;2.40;;;;;;;8.43;66.78;101432.47;5099161;28;20135;-70
2022/12/28 01:41:21;;;;;;;5.28;2.17;;;;;;;8.54;67.43;101451.72;5103894;28;20181;-70
2022/12/28 01:44:27;;;;;;;6.80;2.30;;;;;;;8.53;67.17;101448.22;5102114;28;20132;-68
2022/12/28 01:47:00;;;;;;;4.18;1.92;;;;;;;8.52;66.79;101440.38;5099902;28;20044;-70
2022/12/28 01:49:30;;;;;;;5.20;2.30;;;;;;;8.53;67.38;101428.63;5102508;28;20143;-70
2022/12/28 01:52:02;;;;;;;4.15;2.70;;;;;;;8.50;67.52;101437.88;5104147;28;20058;-69
2022/12/28 01:54:36;;;;;;;7.00;2.30;;;;;;;8.52;66.98;101424.31;5105646;28;20059;-70
2022/12/28 01:57:04;;;;;;;4.57;2.10;;;;;;;8.53;66.87;101423.28;5104308;28;20047;-70
2022/12/28 01:59:36;;;;;;;4.43;2.47;;;;;;;8.54;67.91;101420.41;5101973;28;20068;-70
2022/12/28 02:02:04;;;;;;;3.88;1.80;;;;;;;8.54;67.43;101424.94;5106058;28;20044;-70
2022/12/28 02:04:33;;;;;;;7.28;2.38;;;;;;;8.46;67.31;101397.28;5102839;28;20048;-70
2022/12/28 02:07:00;;;;;;;3.55;1.88;;;;;;;8.54;67.08;101403.50;5104006;28;20381;-70
2022/12/28 02:09:34;;;;;;;4.72;2.08;;;;;;;8.55;67.33;101397.13;5100840;28;20143;-70
2022/12/28 02:12:03;;;;;;;3.88;2.33;;;;;;;8.54;67.43;101393.63;5103295;28;20044;-70
2022/12/28 02:14:31;;;;;;;4.78;2.00;;;;;;;8.57;67.29;101397.75;5102558;28;20485;-70
2022/12/28 02:16:59;;;;;;;3.35;2.22;;;;;;;8.56;67.54;101391.56;5105634;28;20145;-71
2022/12/28 02:19:36;;;;;;;7.00;2.55;;;;;;;8.55;67.07;101384.56;5102939;28;20078;-70
2022/12/28 02:22:24;;;;;;;6.55;3.35;;;;;;;8.46;67.46;101366.97;5099983;28;20525;-70
2022/12/28 02:25:14;;;;;;;6.10;1.95;;;;;;;8.57;67.12;101373.66;5099397;28;20098;-70
2022/12/28 02:27:54;;;;;;;4.78;2.42;;;;;;;8.57;67.64;101355.72;5104608;28;20087;-70
2022/12/28 02:30:24;;;;;;;4.15;2.17;;;;;;;8.55;67.71;101348.91;5100457;28;20131;-69
2022/12/28 02:33:00;;;;;;;4.22;1.95;;;;;;;8.55;67.75;101347.06;5104333;28;20051;-67
2022/12/28 02:35:34;;;;;;;5.32;2.30;;;;;;;8.54;67.27;101336.53;5092530;28;20079;-69
2022/12/28 02:38:11;;;;;;;6.07;2.10;;;;;;;8.48;67.62;101311.34;5098663;28;20075;-69
2022/12/28 02:40:43;;;;;;;3.42;2.00;;;;;;;8.56;68.13;101321.91;5100599;28;20131;-69
2022/12/28 02:43:12;;;;;;;3.33;1.90;;;;;;;8.57;68.22;101325.41;5103715;28;20115;-69
2022/12/28 02:51:44;;;;;;;4.38;2.38;;;;;;;8.58;68.46;101306.47;5101007;28;20459;-69
2022/12/28 02:57:35;;;;;;;3.63;1.90;;;;;;;8.58;68.23;101302.97;5103947;28;20506;-70
2022/12/28 03:00:07;;;;;;;4.50;1.85;;;;;;;8.58;68.39;101300.28;5100027;28;20104;-70
2022/12/28 03:02:53;;;;;;;3.47;2.00;;;;;;;8.56;68.52;101294.28;5103876;28;20089;-70
2022/12/28 03:08:22;;;;;;;3.55;1.90;;;;;;;8.57;68.77;101296.78;5100769;28;20082;-70
2022/12/28 03:10:57;;;;;;;3.55;1.90;;;;;;;8.56;68.56;101281.72;5094005;28;20044;-71
2022/12/28 03:13:42;;;;;;;4.72;2.45;;;;;;;8.58;68.87;101293.06;5106020;28;20044;-71
2022/12/28 03:16:17;;;;;;;3.67;1.85;;;;;;;8.57;68.57;101285.25;5100115;28;20436;-70
2022/12/28 03:32:51;;;;;;;5.57;2.13;;;;;;;8.56;68.83;101272.88;5099011;28;20052;-64
2022/12/28 03:35:23;;;;;;;3.53;1.88;;;;;;;8.58;68.43;101268.13;5099742;28;20050;-69
2022/12/28 03:37:56;;;;;;;5.07;1.75;;;;;;;8.58;68.80;101268.13;5102868;28;20039;-69
2022/12/28 03:40:31;;;;;;;4.80;2.33;;;;;;;8.59;69.44;101269.78;5108718;28;20173;-70
2022/12/28 03:45:56;;;;;;;2.72;1.73;;;;;;;8.57;69.42;101264.63;5088323;28;20052;-68
2022/12/28 03:48:25;;;;;;;3.03;1.92;;;;;;;8.57;69.12;101251.25;5101570;28;20059;-69
2022/12/28 03:50:55;;;;;;;2.83;1.92;;;;;;;8.59;69.41;101257.22;5106531;28;20107;-71
2022/12/28 03:53:28;;;;;;;5.10;2.22;;;;;;;8.60;69.18;101258.06;5101951;28;20044;-69
2022/12/28 03:56:06;;;;;;;3.17;1.75;;;;;;;8.57;69.66;101255.78;5102055;28;20067;-69
2022/12/28 03:58:34;;;;;;;5.43;2.08;;;;;;;8.57;69.95;101250.41;5099668;28;20163;-69
2022/12/28 04:01:02;;;;;;;5.40;2.15;;;;;;;8.58;69.47;101239.50;5100652;28;20070;-69
2022/12/28 04:03:30;;;;;;;3.17;1.67;;;;;;;8.61;69.30;101243.63;5099572;28;20109;-68
2022/12/28 04:06:00;;;;;;;9.85;2.00;;;;;;;8.59;69.90;101235.78;5100104;28;20466;-70
2022/12/28 04:08:28;;;;;;;3.40;1.70;;;;;;;8.61;69.58;101239.09;5098485;28;20107;-69
2022/12/28 04:10:58;;;;;;;4.47;2.60;;;;;;;8.59;69.44;101234.97;5100909;28;20581;-69
2022/12/28 04:13:29;;;;;;;5.32;2.33;;;;;;;8.52;69.43;101226.91;5098877;28;20106;-65
2022/12/28 04:15:58;;;;;;;4.00;2.00;;;;;;;8.63;70.02;101226.34;5100733;28;20047;-69
2022/12/28 04:18:27;;;;;;;2.67;1.75;;;;;;;8.71;69.70;101230.66;5101052;28;20040;-70
2022/12/28 04:20:55;;;;;;;2.88;1.50;;;;;;;8.67;70.02;101238.28;5111680;28;20042;-70
2022/12/28 04:23:25;;;;;;;4.28;2.53;;;;;;;8.66;69.51;101227.78;5097671;28;20048;-69
2022/12/28 04:26:00;;;;;;;5.18;2.17;;;;;;;8.66;69.85;101233.16;5100615;28;20055;-71
2022/12/28 04:28:29;;;;;;;5.30;1.65;;;;;;;8.65;69.81;101231.50;5111880;28;20048;-70
2022/12/28 04:30:58;;;;;;;4.47;2.30;;;;;;;8.64;70.23;101238.69;5107299;28;20484;-70
2022/12/28 04:33:27;;;;;;;2.53;1.58;;;;;;;8.67;70.18;101226.72;5105444;28;20046;-70
2022/12/28 04:36:03;;;;;;;3.53;1.95;;;;;;;8.66;70.00;101227.78;5110798;28;20047;-71
2022/12/28 04:38:32;;;;;;;6.60;2.60;;;;;;;8.67;70.18;101221.38;5103361;28;20568;-70
2022/12/28 04:41:00;;;;;;;2.78;1.52;;;;;;;8.64;69.74;101213.75;5106535;28;20063;-70
2022/12/28 04:43:29;;;;;;;3.92;1.98;;;;;;;8.65;70.18;101221.59;5107699;28;20446;-70
2022/12/28 04:45:57;;;;;;;3.40;1.63;;;;;;;8.67;70.22;101224.88;5099593;28;20143;-71
2022/12/28 04:48:26;;;;;;;5.88;1.95;;;;;;;8.67;70.22;101218.69;5106067;28;20079;-70
2022/12/28 04:50:54;;;;;;;3.42;1.50;;;;;;;8.66;70.21;101227.78;5113568;28;20044;-70
2022/12/28 04:53:23;;;;;;;7.50;3.08;;;;;;;8.68;69.98;101225.69;5113200;28;20075;-70
2022/12/28 04:55:52;;;;;;;5.32;2.42;;;;;;;8.67;69.77;101216.84;5106343;28;20079;-70
2022/12/28 04:58:20;;;;;;;5.40;2.20;;;;;;;8.69;70.48;101222.81;5104359;28;20576;-70
2022/12/28 05:00:48;;;;;;;4.10;1.65;;;;;;;8.67;70.55;101216.84;5095844;28;20083;-70
2022/12/28 05:03:16;;;;;;;2.92;1.70;;;;;;;8.67;70.52;101219.50;5107026;28;20048;-70
2022/12/28 05:05:44;;;;;;;3.70;1.70;;;;;;;8.68;70.09;101221.16;5103218;28;20044;-70
2022/12/28 05:08:11;;;;;;;4.03;1.70;;;;;;;8.71;70.48;101225.31;5107577;28;20049;-69
2022/12/28 05:10:39;;;;;;;5.50;1.88;;;;;;;8.71;70.51;101219.94;5108423;28;20062;-70
2022/12/28 05:13:08;;;;;;;4.20;1.63;;;;;;;8.71;70.02;101209.22;5114620;28;20044;-72
2022/12/28 05:15:38;;;;;;;4.35;1.63;;;;;;;8.73;70.49;101217.88;5110303;28;20144;-70
2022/12/28 05:18:06;;;;;;;2.65;1.77;;;;;;;8.72;70.02;101211.69;5103728;28;20127;-70
2022/12/28 05:20:34;;;;;;;4.45;1.40;;;;;;;8.71;70.92;101214.59;5106138;28;20120;-70
2022/12/28 05:23:01;;;;;;;3.35;1.58;;;;;;;8.66;70.70;101212.53;5114094;28;20070;-71
2022/12/28 05:25:29;;;;;;;2.90;1.40;;;;;;;8.73;70.70;101218.72;5113485;28;20051;-71
2022/12/28 05:27:57;;;;;;;1.95;1.38;;;;;;;8.73;70.75;101210.69;5105625;28;20076;-70
2022/12/28 05:30:26;;;;;;;3.42;1.60;;;;;;;8.72;70.37;101211.69;5105309;28;20052;-70
2022/12/28 05:32:54;;;;;;;6.57;1.65;;;;;;;8.73;71.04;101199.13;5102057;28;20040;-70
2022/12/28 05:35:22;;;;;;;3.60;1.77;;;;;;;8.73;71.11;101199.13;5106114;28;20098;-70
2022/12/28 05:37:49;;;;;;;3.92;2.05;;;;;;;8.73;71.19;101201.81;5104596;28;20111;-70
2022/12/28 05:40:17;;;;;;;4.03;1.38;;;;;;;8.75;70.45;101203.25;5102913;28;20557;-70
2022/12/28 05:42:45;;;;;;;4.15;1.55;;;;;;;8.68;70.81;101190.88;5097211;28;20042;-71
2022/12/28 05:45:18;;;;;;;3.30;1.42;;;;;;;8.75;70.77;101205.13;5108385;28;20077;-71
2022/12/28 05:47:48;;;;;;;4.78;1.60;;;;;;;8.75;71.37;101199.75;5112142;28;20071;-70
2022/12/28 05:50:16;;;;;;;2.65;1.30;;;;;;;8.75;70.63;101207.78;5097163;28;20055;-70
2022/12/28 05:52:44;;;;;;;2.30;1.50;;;;;;;8.75;71.57;101208.63;5115771;28;20054;-70
2022/12/28 05:55:11;;;;;;;1.88;1.30;;;;;;;8.76;71.52;101204.09;5109525;28;20484;-70
2022/12/28 05:57:39;;;;;;;4.65;1.42;;;;;;;8.75;71.51;101205.94;5112576;28;20107;-70
2022/12/28 06:00:08;;;;;;;3.05;1.50;;;;;;;8.75;70.89;101197.06;5109820;28;20067;-69
2022/12/28 06:02:36;;;;;;;4.85;1.75;;;;;;;8.76;71.59;101199.56;4753852;28;9999906;-71
2022/12/28 06:05:07;;;;;;;2.53;1.38;;;;;;;8.77;71.77;101184.31;5095946;28;20192;-71
2022/12/28 06:07:35;;;;;;;3.45;1.35;;;;;;;8.75;71.21;101187.19;5095914;28;20051;-70
2022/12/28 06:10:03;;;;;;;5.22;1.67;;;;;;;8.77;71.62;101181.63;5103823;28;20054;-70
2022/12/28 06:12:31;;;;;;;3.92;1.70;;;;;;;8.79;71.17;101183.06;5104731;28;20118;-70
2022/12/28 06:14:59;;;;;;;3.83;1.20;;;;;;;8.76;71.46;101183.47;5097233;28;20115;-70
2022/12/28 06:17:27;;;;;;;4.40;1.40;;;;;;;8.80;71.28;101178.53;5106859;28;20072;-68
2022/12/28 06:19:55;;;;;;;2.53;1.10;;;;;;;8.79;71.97;101179.56;5102811;28;20123;-70
2022/12/28 06:22:24;;;;;;;3.97;1.52;;;;;;;8.79;71.87;101187.59;5106095;28;20040;-70
2022/12/28 06:24:52;;;;;;;2.97;1.20;;;;;;;8.81;71.88;101182.88;5098380;28;20135;-69
2022/12/28 06:27:19;;;;;;;3.03;1.25;;;;;;;8.78;71.54;101176.06;5098222;28;20087;-68
2022/12/28 06:29:47;;;;;;;1.38;1.20;;;;;;;8.79;71.60;101167.00;5099913;28;20047;-69
2022/12/28 06:32:15;;;;;;;1.55;1.10;;;;;;;8.80;71.75;101165.13;5109426;28;20107;-69
2022/12/28 06:34:43;;;;;;;2.15;1.13;;;;;;;8.79;71.95;101167.00;5098278;28;20048;-70
2022/12/28 06:37:11;;;;;;;2.35;1.35;;;;;;;8.78;71.55;101162.66;5090535;28;20139;-70
2022/12/28 06:39:40;;;;;;;3.40;1.23;;;;;;;8.80;71.55;101154.41;5098669;28;20052;-69
2022/12/28 06:42:08;;;;;;;2.38;1.10;;;;;;;8.80;71.74;101159.78;5107207;28;20103;-70
2022/12/28 06:44:36;;;;;;;3.67;1.20;;;;;;;8.80;71.51;101162.47;5103686;28;20055;-71
2022/12/28 06:47:11;;;;;;;4.32;1.20;;;;;;;8.81;71.95;101156.06;5101065;28;20079;-69
2022/12/28 06:49:39;;;;;;;2.88;1.30;;;;;;;8.80;71.53;101147.19;5097893;28;20040;-69
2022/12/28 06:52:07;;;;;;;3.17;1.30;;;;;;;8.79;72.17;101148.22;5100049;28;20584;-70
2022/12/28 06:54:34;;;;;;;2.20;1.00;;;;;;;8.81;71.70;101145.34;5102271;28;20047;-69
2022/12/28 06:57:04;;;;;;;3.08;1.10;;;;;;;8.81;72.23;101153.38;5095006;28;20081;-71
2022/12/28 06:59:32;;;;;;;2.45;1.00;;;;;;;8.82;72.57;101139.78;5102234;28;20040;-69
2022/12/28 07:02:00;;;;;;;7.35;1.50;;;;;;;8.84;72.56;101141.44;5098839;28;20044;-67
2022/12/28 07:04:28;;;;;;;3.83;1.75;;;;;;;8.82;72.24;101145.16;5099532;28;20048;-67
2022/12/28 07:06:56;;;;;;;1.88;1.17;;;;;;;8.83;71.83;101135.25;5098067;28;20102;-68
2022/12/28 07:09:24;;;;;;;2.75;1.00;;;;;;;8.84;72.16;101131.53;5098972;28;20105;-69
2022/12/28 07:11:52;;;;;;;3.20;1.35;;;;;;;8.85;71.97;101130.53;5099504;28;20263;-69
2022/12/28 07:14:21;;;;;;;1.40;0.93;;;;;;;8.85;71.99;101121.66;5098553;28;21023;-69
2022/12/28 07:16:49;;;;;;;1.95;1.20;;;;;;;8.84;72.09;101114.63;5099001;28;20044;-71
2022/12/28 07:19:17;;;;;;;4.82;1.23;;;;;;;8.83;72.07;101119.19;5094129;28;20111;-68
2022/12/28 07:21:44;;;;;;;1.65;1.02;;;;;;;8.82;72.44;101126.38;5091397;28;20052;-66
2022/12/28 07:24:12;;;;;;;2.05;1.10;;;;;;;8.83;72.28;101119.19;5099014;28;20066;-68
2022/12/28 07:26:40;;;;;;;2.63;0.90;;;;;;;8.86;72.20;101118.75;5108215;28;20064;-68
2022/12/28 07:29:10;;;;;;;1.73;1.10;;;;;;;8.86;72.54;101125.97;5097385;28;20051;-69
2022/12/28 07:31:40;;;;;;;1.67;0.95;;;;;;;8.86;72.87;101120.63;5099482;28;20070;-69
2022/12/28 07:34:13;;;;;;;2.65;1.20;;;;;;;8.81;72.76;101114.00;5099353;28;20524;-69
2022/12/28 07:36:41;;;;;;;1.60;1.10;;;;;;;8.88;72.12;101129.28;5105158;28;20155;-68
2022/12/28 07:39:09;;;;;;;1.67;1.27;;;;;;;8.87;72.46;101125.78;5104810;28;20075;-69
2022/12/28 07:41:37;;;;;;;1.08;0.93;;;;;;;8.89;72.36;101115.69;5106242;28;20075;-67
2022/12/28 07:44:05;;;;;;;1.55;1.00;;;;;;;8.89;72.73;101123.72;5097079;28;20145;-68
2022/12/28 07:46:35;;;;;;;2.25;0.80;;;;;;;8.90;72.05;101124.53;5097652;28;20059;-69
2022/12/28 07:49:05;;;;;;;1.88;1.38;;;;;;;8.88;72.81;101127.44;5098062;28;20059;-69
2022/12/28 07:51:34;;;;;;;3.17;1.20;;;;;;;8.89;72.92;101126.41;5099392;28;20436;-68
2022/12/28 07:54:03;;;;;;;2.67;1.10;;;;;;;8.89;72.80;101129.06;5104536;28;20087;-66
2022/12/28 07:56:33;;;;;;;0.95;0.85;;;;;;;8.92;72.97;101130.53;5101390;28;20048;-67
2022/12/28 07:59:01;;;;;;;1.55;0.98;;;;;;;8.92;72.97;101130.53;5095822;28;20059;-68
2022/12/28 08:01:31;;;;;;;3.95;1.02;;;;;;;9.05;73.44;101135.91;5102076;28;20075;-68
2022/12/28 08:04:01;;;;;;;1.38;0.95;;;;;;;9.00;72.36;101124.97;5088377;28;20052;-69
2022/12/28 08:06:34;;;;;;;3.08;1.25;;;;;;;8.98;72.72;101143.94;5094784;28;20050;-67
2022/12/28 08:09:02;;;;;;;1.92;1.10;;;;;;;9.05;72.52;101139.41;5092396;28;20052;-69
2022/12/28 08:11:32;;;;;;;1.90;0.82;;;;;;;9.14;71.87;101130.13;5088225;28;20090;-66
2022/12/28 08:14:01;;;;;;;1.67;0.90;;;;;;;9.07;71.58;101136.53;5103478;28;20042;-58
2022/12/28 08:16:31;;;;;;;2.45;1.13;;;;;;;9.13;72.05;101125.81;5096689;28;20079;-68
2022/12/28 08:18:59;;;;;;;1.58;1.15;;;;;;;9.11;71.86;101124.38;5097222;28;20043;-67
2022/12/28 08:21:30;;;;;;;1.60;1.05;;;;;;;9.12;72.19;101134.88;5100640;28;20052;-70
2022/12/28 08:23:59;;;;;;;2.35;1.00;;;;;;;9.13;72.42;101124.97;5104247;28;20059;-69
2022/12/28 08:26:29;;;;;;;1.88;1.10;;;;;;;9.10;72.34;101125.41;5096098;28;20120;-70
2022/12/28 08:28:58;;;;;;;2.20;1.65;;;;;;;9.11;72.46;101130.56;5101826;28;20048;-68
2022/12/28 08:31:28;;;;;;;1.52;1.10;;;;;;;9.07;72.63;101125.81;5101594;28;20051;-72
2022/12/28 08:33:58;;;;;;;3.13;1.40;;;;;;;9.11;72.65;101135.09;5101586;28;20036;-71
2022/12/28 08:36:26;;;;;;;2.35;1.35;;;;;;;9.09;72.24;101126.44;5099947;28;20182;-71
2022/12/28 08:38:57;;;;;;;2.58;1.13;;;;;;;9.01;72.79;101111.38;5100248;28;20120;-72
2022/12/28 08:41:27;;;;;;;3.92;1.45;;;;;;;8.99;71.99;101115.28;5102718;28;20109;-72
2022/12/28 08:43:54;;;;;;;4.57;1.20;;;;;;;9.06;72.97;101127.66;5092612;28;20131;-64
2022/12/28 08:46:24;;;;;;;3.65;1.48;;;;;;;9.17;72.90;101122.72;5085705;28;20140;-67
2022/12/28 08:48:54;;;;;;;4.10;1.20;;;;;;;9.26;72.43;101132.22;5095455;28;20504;-69
2022/12/28 08:51:24;;;;;;;2.22;1.35;;;;;;;9.37;72.01;101116.31;5098234;28;20138;-65
2022/12/28 08:53:53;;;;;;;2.65;1.08;;;;;;;9.51;71.08;101122.50;5099545;28;20049;-67
2022/12/28 08:56:24;;;;;;;2.60;0.98;;;;;;;9.68;71.21;101123.72;5092573;28;20120;-69
2022/12/28 08:58:52;;;;;;;1.95;0.98;;;;;;;9.83;69.83;101128.84;5092211;28;20163;-70
2022/12/28 09:01:23;;;;;;;2.33;1.30;;;;;;;9.88;69.38;101110.25;5097872;28;20186;-71
2022/12/28 09:03:52;;;;;;;1.83;1.10;;;;;;;10.11;69.19;101129.41;5098406;28;20253;-68
2022/12/28 09:06:23;;;;;;;0.82;0.80;;;;;;;10.23;68.62;101131.44;5095192;28;20068;-70
2022/12/28 09:08:52;;;;;;;2.60;1.02;;;;;;;10.32;67.96;101125.63;5096437;28;20059;-70
2022/12/28 09:11:35;;;;;;;3.03;1.40;;;;;;;10.61;67.63;101124.22;5095784;28;20109;-70
2022/12/28 09:14:03;;;;;;;2.22;1.20;;;;;;;10.67;67.18;101128.72;5097589;28;20083;-64
2022/12/28 09:16:31;;;;;;;2.67;0.90;;;;;;;10.80;66.73;101118.94;5099149;28;20071;-67
2022/12/28 09:19:02;;;;;;;2.22;0.98;;;;;;;10.84;66.55;101120.97;5094847;28;20055;-65
2022/12/28 09:21:31;;;;;;;2.35;1.05;;;;;;;10.76;66.49;101110.47;5107142;28;20077;-67
2022/12/28 09:23:59;;;;;;;2.63;1.25;;;;;;;10.87;66.47;101122.41;5102306;28;20152;-67
2022/12/28 09:26:29;;;;;;;2.13;0.93;;;;;;;11.05;66.04;101128.69;5098932;28;20596;-67
2022/12/28 09:29:00;;;;;;;3.28;1.27;;;;;;;11.03;66.10;101124.56;5088525;28;20902;-65
2022/12/28 09:31:30;;;;;;;1.38;0.90;;;;;;;11.05;65.68;101123.31;5101246;28;20134;-69
2022/12/28 09:34:01;;;;;;;2.83;0.93;;;;;;;11.06;65.66;101122.28;5104278;28;20070;-71
2022/12/28 09:36:48;;;;;;;1.70;1.08;;;;;;;11.04;67.71;101124.34;5089660;28;20055;-70
2022/12/28 09:39:18;;;;;;;6.35;1.30;;;;;;;11.02;66.66;101121.06;5096287;28;20089;-72
2022/12/28 09:41:50;;;;;;;2.10;0.90;;;;;;;11.15;66.29;101122.00;5101582;28;20083;-71
2022/12/28 09:44:38;;;;;;;1.73;1.17;;;;;;;11.09;66.22;101110.25;5101436;28;20466;-71
2022/12/28 09:47:19;;;;;;;3.38;1.02;;;;;;;11.20;65.99;101122.16;5092802;28;20090;-70
2022/12/28 09:49:57;;;;;;;1.52;1.00;;;;;;;11.19;66.02;101121.34;5100856;28;20062;-71
2022/12/28 09:52:30;;;;;;;2.35;0.90;;;;;;;11.21;65.80;101121.13;5100292;28;20435;-69
2022/12/28 09:55:07;;;;;;;3.08;1.10;;;;;;;11.14;66.04;101099.66;5100070;28;20040;-71
2022/12/28 09:57:36;;;;;;;;;;;;;;;11.25;65.73;101114.25;5099440;28;20075;-72
2022/12/28 10:00:08;;;;;;;0.70;0.70;;;;;;;11.27;65.30;101102.25;5090426;28;19928;-73
2022/12/28 10:02:38;;;;;;;2.60;1.17;;;;;;;11.35;65.65;101119.97;5101227;28;20540;-73
2022/12/28 10:05:07;;;;;;;1.63;1.25;;;;;;;11.23;66.06;101110.97;5092905;28;20041;-73
2022/12/28 10:07:37;;;;;;;1.55;1.00;;;;;;;11.12;66.87;101123.25;5099316;28;20121;-69
2022/12/28 10:10:05;;;;;;;0.98;0.70;;;;;;;10.96;66.81;101108.47;5089929;28;20517;-71
2022/12/28 10:12:34;;;;;;;2.00;1.02;;;;;;;10.81;67.69;101099.91;5101711;28;20125;-74
2022/12/28 10:15:02;;;;;;;1.35;1.00;;;;;;;10.67;68.37;101101.03;5096872;28;20048;-76
2022/12/28 10:17:31;;;;;;;1.70;1.02;;;;;;;10.50;68.91;101100.72;5101536;28;20127;-64
2022/12/28 10:19:59;;;;;;;1.35;0.95;;;;;;;10.41;69.03;101105.50;5095736;28;20106;-70
2022/12/28 10:22:37;;;;;;;1.88;1.00;;;;;;;10.33;69.51;101103.09;5095221;28;20050;-70
2022/12/28 10:25:17;;;;;;;2.95;1.02;;;;;;;10.27;69.67;101097.75;5100592;28;20439;-70
2022/12/28 10:27:45;;;;;;;2.50;1.20;;;;;;;10.21;70.02;101095.91;5092831;28;20123;-70
2022/12/28 10:30:16;;;;;;;1.50;0.90;;;;;;;10.17;70.33;101100.03;5099608;28;20137;-69
2022/12/28 10:32:55;;;;;;;1.83;1.13;;;;;;;10.14;70.37;101101.28;5100125;28;20116;-70
2022/12/28 10:35:33;;;;;;;2.83;1.00;;;;;;;10.11;70.83;101091.78;5093780;28;20088;-69
2022/12/28 10:38:06;;;;;;;2.13;1.70;;;;;;;10.01;70.46;101086.06;5094687;28;20106;-70
2022/12/28 10:40:38;;;;;;;7.38;1.48;;;;;;;10.07;70.86;101090.56;5099869;28;20522;-70
2022/12/28 10:43:06;;;;;;;1.70;1.20;;;;;;;10.07;71.02;101087.06;5099516;28;20404;-71
2022/12/28 10:45:41;;;;;;;3.42;1.40;;;;;;;9.97;70.88;101079.47;5100061;28;20079;-69
2022/12/28 10:48:16;;;;;;;2.05;1.13;;;;;;;9.95;71.32;101072.66;5096577;28;20044;-69
2022/12/28 10:50:50;;;;;;;3.20;1.30;;;;;;;9.99;71.43;101081.94;5098226;28;20051;-69
2022/12/28 10:53:23;;;;;;;2.55;1.60;;;;;;;10.15;72.02;101076.09;5101259;28;20054;-65
2022/12/28 10:56:01;;;;;;;3.13;1.33;;;;;;;9.98;72.57;101081.09;5098595;28;20058;-67
2022/12/28 10:58:29;;;;;;;3.83;1.13;;;;;;;9.85;72.06;101062.34;5114555;28;20070;-68
2022/12/28 11:01:03;;;;;;;2.55;1.90;;;;;;;9.94;72.19;101079.06;5088682;28;20143;-64
2022/12/28 11:03:36;;;;;;;3.22;1.50;;;;;;;10.00;72.19;101067.47;5092341;28;20048;-66
2022/12/28 11:06:12;;;;;;;1.92;1.10;;;;;;;10.01;72.15;101069.94;5097546;28;20066;-66
2022/12/28 11:08:42;;;;;;;6.05;1.95;;;;;;;10.18;71.80;101070.28;5086926;28;20144;-67
2022/12/28 11:11:18;;;;;;;2.00;1.40;;;;;;;10.33;71.43;101068.16;5098451;28;20078;-68
2022/12/28 11:13:50;;;;;;;5.00;1.67;;;;;;;10.51;70.64;101061.22;5101107;28;20112;-68
2022/12/28 11:16:18;;;;;;;6.95;1.40;;;;;;;10.64;70.25;101069.19;5097994;28;20489;-66
2022/12/28 11:18:47;;;;;;;3.70;1.40;;;;;;;10.80;69.50;101059.78;5100280;28;20051;-69
2022/12/28 11:21:20;;;;;;;2.15;1.02;;;;;;;10.90;69.19;101052.06;5094747;28;20052;-69
2022/12/28 11:23:49;;;;;;;2.50;1.40;;;;;;;10.95;69.14;101057.59;5096512;28;20039;-69
2022/12/28 11:26:18;;;;;;;3.97;1.55;;;;;;;10.82;69.30;101050.47;5103878;28;20039;-70
2022/12/28 11:28:50;;;;;;;4.35;1.60;;;;;;;10.75;69.71;101049.69;5094266;28;20081;-68
2022/12/28 11:31:26;;;;;;;4.47;1.55;;;;;;;10.62;69.94;101044.41;5099122;28;20054;-66
2022/12/28 11:33:58;;;;;;;4.25;1.55;;;;;;;10.49;70.88;101039.13;5105920;28;20040;-66
2022/12/28 11:36:28;;;;;;;2.78;1.30;;;;;;;10.44;70.86;101037.91;5093515;28;20097;-69
2022/12/28 11:38:56;;;;;;;4.22;1.48;;;;;;;10.41;71.17;101032.97;5101492;28;20135;-68
2022/12/28 11:41:45;;;;;;;3.42;1.30;;;;;;;10.38;71.16;101020.00;5097034;28;20093;-67
2022/12/28 11:44:53;;;;;;;3.72;2.03;;;;;;;10.37;71.75;101018.34;5089954;28;20048;-67
2022/12/28 11:47:31;;;;;;;3.08;1.38;;;;;;;10.32;71.46;101020.84;5093576;28;20143;-67
2022/12/28 11:50:38;;;;;;;2.80;1.48;;;;;;;10.30;71.47;101006.81;5095021;28;20098;-66
2022/12/28 11:53:21;;;;;;;4.10;1.33;;;;;;;10.28;71.51;101016.94;5100579;28;20132;-67
2022/12/28 11:56:01;;;;;;;4.53;1.58;;;;;;;10.31;72.22;100997.72;5099248;28;20036;-65
2022/12/28 11:59:14;;;;;;;5.15;1.20;;;;;;;10.47;72.59;100982.91;5102828;28;20052;-69
2022/12/28 12:01:44;;;;;;;6.43;2.25;;;;;;;10.37;71.47;100978.03;5100157;28;20050;-68
2022/12/28 12:04:45;;;;;;;4.93;1.80;;;;;;;10.40;72.15;100980.28;5102166;28;20048;-69
2022/12/28 12:07:25;;;;;;;2.90;1.52;;;;;;;10.21;71.86;100973.19;5105022;28;20048;-69
2022/12/28 12:10:27;;;;;;;6.53;1.50;;;;;;;10.23;72.08;100975.66;5093062;28;20073;-70
2022/12/28 12:12:55;;;;;;;4.15;1.27;;;;;;;10.21;72.29;100961.63;5095878;28;20056;-70
2022/12/28 12:15:31;;;;;;;3.28;1.40;;;;;;;10.24;73.07;100977.31;5099978;28;20044;-70
2022/12/28 12:18:02;;;;;;;3.30;1.10;;;;;;;10.28;72.35;100970.47;5099860;28;20047;-71
2022/12/28 12:20:55;;;;;;;2.63;1.40;;;;;;;10.19;72.54;100947.56;5109233;28;20044;-72